Time;durP1;ratioP1;P1;durP2;ratioP2;P2;SDS_P1;SDS_P2;PMS_P1;PMS_P2;Temp;Humidity;BMP_temperature;BMP_pressure;BME280_temperature;BME280_humidity;BME280_pressure;Samples;Min_cycle;Max_cycle;Signal;HPM_P1;HPM_P2
2022/05/07 00:01:35;;;;;;;9.30;5.57;;;13.50;99.90;;;;;;5045452;28;20387;-81
2022/05/07 00:04:20;;;;;;;7.43;6.83;;;13.40;99.90;;;;;;5044746;28;20497;-81
2022/05/07 00:07:05;;;;;;;7.17;6.40;;;13.40;99.90;;;;;;5044729;28;20386;-82
2022/05/07 00:09:50;;;;;;;6.33;5.63;;;13.40;99.90;;;;;;5015845;28;20387;-83
2022/05/07 00:12:34;;;;;;;5.77;5.20;;;13.40;99.90;;;;;;5056049;28;20417;-82
2022/05/07 00:15:19;;;;;;;5.70;5.30;;;13.40;99.90;;;;;;5065171;28;20442;-82
2022/05/07 00:18:05;;;;;;;6.43;5.83;;;13.30;99.90;;;;;;5064493;28;20449;-82
2022/05/07 00:20:50;;;;;;;5.67;5.17;;;13.30;99.90;;;;;;5050355;28;20390;-81
2022/05/07 00:23:34;;;;;;;5.50;5.10;;;13.30;99.90;;;;;;5049747;28;20684;-82
2022/05/07 00:26:19;;;;;;;6.13;5.63;;;13.30;99.90;;;;;;5064751;28;20390;-83
2022/05/07 00:29:04;;;;;;;6.00;5.60;;;13.20;99.90;;;;;;5064773;28;20390;-82
2022/05/07 00:31:48;;;;;;;4.63;4.30;;;13.10;99.90;;;;;;5065379;28;20390;-83
2022/05/07 00:34:33;;;;;;;5.03;4.63;;;13.00;99.90;;;;;;5064497;28;20378;-83
2022/05/07 00:37:17;;;;;;;8.00;4.77;;;12.90;99.90;;;;;;5049191;28;20564;-83
2022/05/07 00:40:04;;;;;;;5.17;4.77;;;12.80;99.90;;;;;;5064130;28;20405;-83
2022/05/07 00:42:48;;;;;;;8.73;5.53;;;12.80;99.90;;;;;;5064311;28;20374;-82
2022/05/07 00:45:33;;;;;;;6.33;5.83;;;12.80;99.90;;;;;;5048691;28;20381;-82
2022/05/07 00:48:17;;;;;;;5.57;5.03;;;12.80;99.90;;;;;;5064029;28;20382;-82
2022/05/07 00:54:09;;;;;;;5.57;5.10;;;12.80;99.90;;;;;;5051183;28;20382;-82
2022/05/07 00:56:53;;;;;;;5.33;4.87;;;12.80;99.90;;;;;;5035198;28;20461;-82
2022/05/07 00:59:38;;;;;;;5.30;4.90;;;12.70;99.90;;;;;;5053113;28;20405;-82
2022/05/07 01:02:23;;;;;;;5.83;5.43;;;12.70;99.90;;;;;;5064480;28;20382;-80
2022/05/07 01:05:09;;;;;;;5.73;5.30;;;12.70;99.90;;;;;;5065670;28;20457;-80
2022/05/07 01:07:54;;;;;;;5.93;5.33;;;12.60;99.90;;;;;;5066157;28;20702;-80
2022/05/07 01:10:40;;;;;;;5.93;5.43;;;12.50;99.90;;;;;;5065676;28;20458;-81
2022/05/07 01:13:25;;;;;;;6.57;5.90;;;12.40;99.90;;;;;;5047983;28;20398;-79
2022/05/07 01:16:11;;;;;;;7.13;5.10;;;12.40;99.90;;;;;;5047087;28;20382;-80
2022/05/07 01:18:56;;;;;;;5.00;4.60;;;12.40;99.90;;;;;;5047124;28;20406;-81
2022/05/07 01:21:40;;;;;;;5.63;4.83;;;12.30;99.90;;;;;;5049368;28;20863;-81
2022/05/07 01:24:25;;;;;;;5.40;5.00;;;12.30;99.90;;;;;;5048764;28;20388;-82
2022/05/07 01:27:10;;;;;;;7.43;6.83;;;12.30;99.90;;;;;;5031213;28;20429;-83
2022/05/07 01:29:54;;;;;;;5.07;4.60;;;12.20;99.90;;;;;;5058792;28;20390;-82
2022/05/07 01:32:39;;;;;;;6.23;5.80;;;12.30;99.90;;;;;;5044503;28;20397;-82
2022/05/07 01:35:23;;;;;;;6.07;5.57;;;12.40;99.90;;;;;;5043990;28;20398;-82
2022/05/07 01:38:08;;;;;;;6.47;5.97;;;12.40;99.90;;;;;;5044077;28;20493;-82
2022/05/07 01:40:53;;;;;;;6.00;5.60;;;12.30;99.90;;;;;;5042803;28;20391;-82
2022/05/07 01:43:38;;;;;;;5.63;5.23;;;12.30;99.90;;;;;;5043416;28;20440;-81
2022/05/07 01:49:27;;;;;;;6.00;5.47;;;12.30;99.90;;;;;;5044108;28;20463;-80
2022/05/07 01:52:11;;;;;;;5.90;5.40;;;12.30;99.90;;;;;;5047396;28;20431;-80
2022/05/07 01:54:56;;;;;;;6.77;5.57;;;12.20;99.90;;;;;;5032551;28;20394;-81
2022/05/07 01:57:41;;;;;;;6.97;5.90;;;12.20;99.90;;;;;;5046779;28;20539;-80
2022/05/07 02:00:26;;;;;;;6.00;5.50;;;12.20;99.90;;;;;;5047158;28;20383;-82
2022/05/07 02:03:10;;;;;;;6.50;5.90;;;12.20;99.90;;;;;;5032181;28;20954;-82
2022/05/07 02:05:55;;;;;;;7.43;6.73;;;12.30;99.90;;;;;;5062138;28;20445;-82
2022/05/07 02:08:39;;;;;;;5.10;4.70;;;12.20;99.90;;;;;;5066930;28;20408;-82
2022/05/07 02:11:25;;;;;;;6.23;5.83;;;12.10;99.90;;;;;;5066839;28;20444;-81
2022/05/07 02:14:10;;;;;;;7.07;4.57;;;12.10;99.90;;;;;;5067151;28;20382;-82
2022/05/07 02:16:55;;;;;;;7.00;5.80;;;12.10;99.90;;;;;;5066458;28;20496;-82
2022/05/07 02:19:39;;;;;;;5.87;5.37;;;12.00;99.90;;;;;;5067604;28;20390;-82
2022/05/07 02:22:24;;;;;;;5.67;5.10;;;12.00;99.90;;;;;;5067279;28;20382;-82
2022/05/07 02:25:09;;;;;;;6.00;5.40;;;12.00;99.90;;;;;;5067894;28;20448;-82
2022/05/07 02:27:53;;;;;;;5.90;5.40;;;12.00;99.90;;;;;;5052097;28;20394;-82
2022/05/07 02:30:38;;;;;;;5.30;4.90;;;11.90;99.90;;;;;;5051390;28;20382;-81
2022/05/07 02:33:22;;;;;;;5.60;5.10;;;12.00;99.90;;;;;;5065615;28;20382;-82
2022/05/07 02:36:07;;;;;;;5.80;5.30;;;11.90;99.90;;;;;;5067158;28;20390;-82
2022/05/07 02:38:52;;;;;;;7.80;5.40;;;11.80;99.90;;;;;;5066456;28;20460;-81
2022/05/07 02:44:31;;;;;;;6.77;5.20;;;11.80;99.90;;;;;;5065420;28;20866;-82
2022/05/07 02:47:15;;;;;;;5.80;5.30;;;11.80;99.90;;;;;;5049498;28;20518;-82
2022/05/07 02:49:59;;;;;;;6.20;5.70;;;11.80;99.90;;;;;;5066520;28;20168;-82
2022/05/07 02:52:44;;;;;;;8.23;5.77;;;11.80;99.90;;;;;;5066643;28;20542;-82
2022/05/07 02:55:28;;;;;;;4.67;4.30;;;11.80;99.90;;;;;;5051074;28;20413;-82
2022/05/07 02:58:13;;;;;;;5.70;5.30;;;11.80;99.90;;;;;;5054148;28;20465;-79
2022/05/07 03:00:58;;;;;;;6.90;5.87;;;11.80;99.90;;;;;;5073360;28;20462;-80
2022/05/07 03:03:42;;;;;;;7.00;6.00;;;11.90;99.90;;;;;;5059031;28;20437;-78
2022/05/07 03:06:27;;;;;;;5.57;5.17;;;11.80;99.90;;;;;;5080721;28;20508;-79
2022/05/07 03:09:12;;;;;;;6.70;5.30;;;11.80;99.90;;;;;;5093095;28;20899;-77
2022/05/07 03:11:58;;;;;;;5.70;5.20;;;11.80;99.90;;;;;;5079752;28;20405;-82
2022/05/07 03:14:42;;;;;;;5.33;4.93;;;11.80;99.90;;;;;;5071220;28;20409;-80
2022/05/07 03:17:27;;;;;;;5.80;5.40;;;11.80;99.90;;;;;;5071735;28;20441;-82
2022/05/07 03:20:16;;;;;;;5.63;5.13;;;11.80;99.90;;;;;;5066680;28;20385;-82
2022/05/07 03:23:00;;;;;;;5.10;4.70;;;11.70;99.90;;;;;;5065558;28;20393;-82
2022/05/07 03:25:45;;;;;;;6.03;5.47;;;11.70;99.90;;;;;;5065330;28;20528;-80
2022/05/07 03:28:30;;;;;;;6.20;5.70;;;11.60;99.90;;;;;;5065172;28;20786;-82
2022/05/07 03:31:15;;;;;;;7.60;6.00;;;11.60;99.90;;;;;;5066293;28;20479;-82
2022/05/07 03:33:59;;;;;;;7.90;6.40;;;11.50;99.90;;;;;;5065662;28;20386;-82
2022/05/07 03:36:44;;;;;;;5.47;5.07;;;11.40;99.90;;;;;;5064937;28;20495;-82
2022/05/07 03:39:31;;;;;;;9.83;5.57;;;11.50;99.90;;;;;;5049603;28;20382;-82
2022/05/07 03:42:16;;;;;;;5.70;5.30;;;11.50;99.90;;;;;;5065751;28;20917;-82
2022/05/07 03:45:01;;;;;;;6.33;5.87;;;11.50;99.90;;;;;;5050201;28;20386;-81
2022/05/07 03:47:46;;;;;;;6.43;5.73;;;11.40;99.90;;;;;;5056557;28;20402;-82
2022/05/07 03:50:31;;;;;;;6.13;5.47;;;11.40;99.90;;;;;;5082938;28;20389;-82
2022/05/07 03:53:30;;;;;;;8.00;5.83;;;11.40;99.90;;;;;;5084590;28;20742;-82
2022/05/07 03:56:14;;;;;;;5.83;5.40;;;11.40;99.90;;;;;;5084590;28;20467;-82
2022/05/07 03:58:59;;;;;;;6.03;5.27;;;11.40;99.90;;;;;;5086497;28;20389;-82
2022/05/07 04:01:43;;;;;;;5.23;4.87;;;11.30;99.90;;;;;;5084806;28;20464;-82
2022/05/07 04:04:28;;;;;;;5.63;5.13;;;11.20;99.90;;;;;;5089154;28;20784;-81
2022/05/07 04:07:14;;;;;;;5.63;5.10;;;11.30;99.90;;;;;;5070985;28;20400;-82
2022/05/07 04:09:59;;;;;;;5.47;5.00;;;11.30;99.90;;;;;;5085874;28;20385;-82
2022/05/07 04:12:48;;;;;;;5.57;5.07;;;11.20;99.90;;;;;;5066435;28;20452;-82
2022/05/07 04:15:33;;;;;;;5.23;4.77;;;11.20;99.90;;;;;;5066327;28;20493;-82
2022/05/07 04:18:17;;;;;;;6.07;5.60;;;11.20;99.90;;;;;;5075293;28;20468;-82
2022/05/07 04:21:02;;;;;;;5.50;5.10;;;11.30;99.90;;;;;;5064185;28;20417;-80
2022/05/07 04:23:46;;;;;;;5.80;5.20;;;11.30;99.90;;;;;;5078946;28;20394;-82
2022/05/07 04:26:31;;;;;;;7.00;6.40;;;11.20;99.90;;;;;;5074319;28;20512;-81
2022/05/07 04:29:17;;;;;;;13.23;7.00;;;11.20;99.90;;;;;;5064111;28;20374;-82
2022/05/07 04:32:03;;;;;;;6.07;5.53;;;11.30;99.90;;;;;;5049189;28;20386;-82
2022/05/07 04:34:48;;;;;;;7.40;6.50;;;11.40;99.90;;;;;;5063698;28;20399;-82
2022/05/07 04:37:33;;;;;;;7.37;5.67;;;11.40;99.90;;;;;;5064635;28;20624;-81
2022/05/07 04:40:17;;;;;;;5.43;4.67;;;11.50;99.90;;;;;;5063561;28;20741;-82
2022/05/07 04:43:01;;;;;;;5.73;5.23;;;11.60;99.90;;;;;;5076295;28;20804;-83
2022/05/07 04:45:46;;;;;;;4.70;4.30;;;11.60;99.90;;;;;;5038858;28;20401;-83
2022/05/07 04:48:32;;;;;;;5.10;4.53;;;11.60;99.90;;;;;;5084437;28;20415;-82
2022/05/07 04:51:17;;;;;;;5.63;5.20;;;11.70;99.90;;;;;;5083547;28;20408;-83
2022/05/07 04:54:01;;;;;;;4.93;4.50;;;11.70;99.90;;;;;;5084223;28;20408;-81
2022/05/07 04:56:47;;;;;;;9.17;5.10;;;11.70;99.90;;;;;;5083976;28;20456;-82
2022/05/07 04:59:32;;;;;;;6.33;4.63;;;11.70;99.90;;;;;;5069430;28;20433;-83
2022/05/07 05:02:17;;;;;;;5.53;5.03;;;11.70;99.90;;;;;;5084825;28;20830;-83
2022/05/07 05:05:01;;;;;;;5.70;5.20;;;11.70;99.90;;;;;;5080251;28;20481;-82
2022/05/07 05:07:46;;;;;;;5.17;4.77;;;11.70;99.90;;;;;;5051783;28;20390;-82
2022/05/07 05:10:30;;;;;;;4.80;4.40;;;11.80;99.90;;;;;;5052778;28;20395;-82
2022/05/07 05:13:15;;;;;;;4.70;4.30;;;11.90;99.90;;;;;;5047340;28;20409;-81
2022/05/07 05:15:59;;;;;;;5.97;5.50;;;12.00;99.90;;;;;;5047878;28;20386;-83
2022/05/07 05:18:44;;;;;;;5.97;5.03;;;11.90;99.90;;;;;;5032249;28;20429;-83
2022/05/07 05:21:29;;;;;;;6.57;4.90;;;12.10;99.90;;;;;;5045798;28;20379;-83
2022/05/07 05:24:13;;;;;;;6.93;5.03;;;12.20;99.90;;;;;;5046603;28;20383;-82
2022/05/07 05:26:57;;;;;;;5.40;4.90;;;12.30;99.90;;;;;;5051779;28;20442;-82
2022/05/07 05:29:42;;;;;;;7.40;5.40;;;12.10;99.90;;;;;;5036681;28;20465;-82
2022/05/07 05:32:27;;;;;;;5.70;5.30;;;12.30;99.90;;;;;;5036332;28;20379;-82
2022/05/07 05:35:11;;;;;;;5.77;5.20;;;12.40;99.90;;;;;;5052025;28;20376;-82
2022/05/07 05:37:56;;;;;;;5.60;5.03;;;12.40;99.90;;;;;;5052555;28;20482;-82
2022/05/07 05:40:41;;;;;;;5.80;4.93;;;12.50;99.90;;;;;;5052738;28;20390;-83
2022/05/07 05:43:26;;;;;;;5.43;4.93;;;12.50;99.90;;;;;;5052214;28;20398;-81
2022/05/07 05:46:11;;;;;;;6.13;5.63;;;12.60;99.90;;;;;;5052532;28;20418;-81
2022/05/07 05:48:55;;;;;;;5.73;5.20;;;12.70;99.90;;;;;;5057214;28;20395;-78
2022/05/07 05:51:40;;;;;;;5.67;5.17;;;12.60;99.90;;;;;;5041631;28;20502;-79
2022/05/07 05:54:25;;;;;;;5.20;4.80;;;12.80;99.90;;;;;;5041047;28;20409;-82
2022/05/07 05:57:10;;;;;;;5.13;4.73;;;12.80;99.90;;;;;;5054375;28;20442;-80
2022/05/07 05:59:55;;;;;;;5.67;5.00;;;12.90;99.90;;;;;;5053073;28;20391;-82
2022/05/07 06:02:43;;;;;;;9.83;5.37;;;12.90;99.90;;;;;;5052592;28;20386;-82
2022/05/07 06:05:28;;;;;;;6.23;5.73;;;13.00;99.90;;;;;;5063825;28;20527;-82
2022/05/07 06:08:13;;;;;;;6.30;5.30;;;13.00;99.90;;;;;;5073969;28;20412;-80
2022/05/07 06:10:58;;;;;;;5.90;5.40;;;13.10;99.90;;;;;;5056404;28;20474;-78
2022/05/07 06:13:45;;;;;;;4.97;4.50;;;13.10;99.90;;;;;;5058616;28;20441;-79
2022/05/07 06:16:29;;;;;;;5.80;4.30;;;13.20;99.90;;;;;;5057496;28;20425;-81
2022/05/07 06:19:15;;;;;;;5.97;5.37;;;13.30;99.90;;;;;;5040903;28;20518;-78
2022/05/07 06:22:02;;;;;;;6.33;5.03;;;13.30;99.90;;;;;;5043061;28;20378;-80
2022/05/07 06:27:50;;;;;;;5.00;4.60;;;13.40;99.90;;;;;;5061211;28;20510;-83
2022/05/07 06:30:35;;;;;;;7.93;6.07;;;13.50;99.90;;;;;;5049430;28;20407;-82
2022/05/07 06:33:21;;;;;;;6.37;5.33;;;13.50;99.90;;;;;;5063679;28;20395;-82
2022/05/07 06:36:06;;;;;;;6.40;5.80;;;13.60;99.90;;;;;;5020566;28;20459;-82
2022/05/07 06:38:51;;;;;;;4.83;4.43;;;13.60;99.90;;;;;;5019833;28;20473;-81
2022/05/07 06:41:36;;;;;;;6.43;5.80;;;13.70;99.90;;;;;;5019670;28;20392;-81
2022/05/07 06:44:20;;;;;;;8.80;4.40;;;13.80;99.90;;;;;;5018979;28;20421;-82
2022/05/07 06:47:05;;;;;;;6.73;4.60;;;13.80;99.90;;;;;;5018795;28;20424;-82
2022/05/07 06:49:49;;;;;;;6.10;5.53;;;13.90;99.90;;;;;;5018043;28;20473;-82
2022/05/07 06:52:44;;;;;;;12.00;4.37;;;14.00;99.90;;;;;;5017100;28;20393;-82
2022/05/07 06:55:32;;;;;;;6.00;5.10;;;14.10;99.90;;;;;;5018997;28;20456;-79
2022/05/07 06:58:16;;;;;;;4.00;3.70;;;13.80;99.90;;;;;;5008049;28;20487;-82
2022/05/07 07:01:03;;;;;;;7.17;5.30;;;14.10;99.90;;;;;;5005721;28;20948;-83
2022/05/07 07:03:47;;;;;;;4.67;4.27;;;14.20;99.90;;;;;;5005364;28;20389;-81
2022/05/07 07:06:31;;;;;;;4.33;3.93;;;14.30;99.90;;;;;;5017433;28;20512;-80
2022/05/07 07:09:17;;;;;;;5.30;3.93;;;14.40;99.90;;;;;;5017864;28;20394;-82
2022/05/07 07:12:01;;;;;;;4.80;4.40;;;14.50;99.90;;;;;;5054863;28;20405;-82
2022/05/07 07:14:47;;;;;;;4.63;4.23;;;14.50;99.90;;;;;;5059849;28;20390;-82
2022/05/07 07:17:32;;;;;;;11.30;4.17;;;14.60;99.90;;;;;;5067144;28;20635;-81
2022/05/07 07:20:18;;;;;;;4.13;3.67;;;14.70;99.90;;;;;;5056214;28;20937;-81
2022/05/07 07:23:03;;;;;;;4.50;4.10;;;14.80;99.90;;;;;;5065737;28;20456;-81
2022/05/07 07:25:47;;;;;;;11.10;4.77;;;14.90;99.90;;;;;;5066455;28;20398;-81
2022/05/07 07:28:32;;;;;;;5.90;4.67;;;14.90;99.90;;;;;;5065302;28;20389;-81
2022/05/07 07:31:17;;;;;;;5.10;4.57;;;15.00;99.90;;;;;;5065108;28;20743;-81
2022/05/07 07:34:02;;;;;;;5.10;4.03;;;15.10;99.90;;;;;;5064131;28;20447;-80
2022/05/07 07:36:47;;;;;;;5.37;4.87;;;15.20;99.90;;;;;;5064494;28;20461;-81
2022/05/07 07:39:32;;;;;;;5.17;4.70;;;15.20;99.90;;;;;;5064876;28;20414;-80
2022/05/07 07:42:20;;;;;;;4.83;4.37;;;15.30;99.90;;;;;;5050943;28;20937;-82
2022/05/07 07:48:07;;;;;;;4.57;4.17;;;15.60;99.90;;;;;;5052958;28;20413;-81
2022/05/07 07:50:55;;;;;;;4.53;4.17;;;15.70;99.90;;;;;;5036831;28;20413;-82
2022/05/07 07:53:42;;;;;;;7.23;5.20;;;15.60;99.90;;;;;;5050204;28;20386;-81
2022/05/07 07:56:26;;;;;;;5.13;4.70;;;15.70;99.90;;;;;;5066133;28;20432;-82
2022/05/07 07:59:11;;;;;;;4.87;4.43;;;15.90;99.90;;;;;;5065790;28;20394;-82
2022/05/07 08:01:56;;;;;;;4.30;3.73;;;16.10;99.90;;;;;;5065320;28;20436;-82
2022/05/07 08:04:40;;;;;;;5.20;4.20;;;16.20;99.90;;;;;;5065235;28;20856;-82
2022/05/07 08:13:23;;;;;;;4.77;4.23;;;16.50;99.90;;;;;;5045501;28;20417;-82
2022/05/07 08:16:08;;;;;;;6.40;3.70;;;16.60;99.90;;;;;;5030600;28;20430;-82
2022/05/07 08:18:53;;;;;;;4.10;3.73;;;16.60;99.90;;;;;;5031405;28;20422;-81
2022/05/07 08:21:38;;;;;;;3.93;3.63;;;16.80;99.90;;;;;;5046682;28;20402;-82
2022/05/07 08:24:23;;;;;;;4.20;3.80;;;16.90;99.90;;;;;;5046267;28;20450;-81
2022/05/07 08:27:08;;;;;;;8.00;4.43;;;17.00;99.90;;;;;;5031621;28;20387;-82
2022/05/07 08:29:55;;;;;;;3.50;3.00;;;17.10;99.90;;;;;;5045871;28;20426;-82
2022/05/07 08:32:39;;;;;;;3.87;3.13;;;17.20;99.90;;;;;;5031108;28;20435;-81
2022/05/07 08:35:24;;;;;;;4.30;3.60;;;17.30;99.90;;;;;;5030397;28;20443;-81
2022/05/07 08:38:09;;;;;;;3.40;3.07;;;17.40;99.90;;;;;;5030740;28;20454;-81
2022/05/07 08:40:54;;;;;;;3.73;3.37;;;17.50;99.90;;;;;;5030497;28;20430;-82
2022/05/07 08:43:41;;;;;;;3.43;3.00;;;17.60;99.90;;;;;;5046357;28;20924;-83
2022/05/07 08:46:25;;;;;;;3.80;3.33;;;17.60;99.90;;;;;;5045068;28;20398;-82
2022/05/07 08:49:11;;;;;;;3.23;2.93;;;17.70;99.90;;;;;;5031210;28;20451;-80
2022/05/07 08:52:01;;;;;;;3.23;2.93;;;17.80;99.90;;;;;;5045258;28;20407;-82
2022/05/07 08:54:46;;;;;;;6.90;4.03;;;17.70;99.90;;;;;;5045589;28;20387;-81
2022/05/07 08:57:30;;;;;;;2.97;2.77;;;17.50;99.90;;;;;;5030427;28;20446;-83
2022/05/07 09:00:18;;;;;;;2.70;2.50;;;17.60;99.90;;;;;;5030174;28;20429;-81
2022/05/07 09:03:02;;;;;;;4.17;3.80;;;17.70;99.90;;;;;;5044199;28;20398;-81
2022/05/07 09:05:47;;;;;;;3.20;2.90;;;17.70;99.90;;;;;;5046332;28;20446;-83
2022/05/07 09:08:36;;;;;;;4.27;3.50;;;17.80;99.90;;;;;;5030762;28;20391;-81
2022/05/07 09:11:21;;;;;;;2.73;2.53;;;18.10;99.90;;;;;;5051645;28;20390;-82
2022/05/07 09:14:06;;;;;;;4.27;2.60;;;18.50;99.90;;;;;;5036240;28;20401;-82
2022/05/07 09:16:50;;;;;;;2.67;2.43;;;18.70;99.90;;;;;;5064614;28;20457;-83
2022/05/07 09:19:35;;;;;;;2.97;2.77;;;18.60;99.90;;;;;;5050194;28;20509;-83
2022/05/07 09:22:20;;;;;;;3.23;2.93;;;18.40;99.90;;;;;;5066464;28;20474;-82
2022/05/07 09:25:05;;;;;;;2.43;2.23;;;18.10;99.90;;;;;;5066170;28;20389;-82
2022/05/07 09:27:51;;;;;;;6.00;2.27;;;18.10;99.90;;;;;;5044687;28;20894;-82
2022/05/07 09:30:36;;;;;;;2.53;2.33;;;18.50;99.90;;;;;;5037156;28;20444;-82
2022/05/07 09:33:33;;;;;;;4.20;2.33;;;19.10;99.90;;;;;;5065710;28;20413;-82
2022/05/07 09:36:19;;;;;;;4.60;2.37;;;19.10;99.90;;;;;;5036825;28;20398;-83
2022/05/07 09:39:04;;;;;;;5.63;2.47;;;19.10;99.90;;;;;;5052471;28;20486;-82
2022/05/07 09:42:00;;;;;;;2.97;2.67;;;19.00;97.70;;;;;;5068110;28;20409;-81
2022/05/07 09:44:45;;;;;;;2.60;2.40;;;19.30;98.20;;;;;;5052875;28;20496;-82
2022/05/07 09:47:33;;;;;;;3.40;2.57;;;19.40;95.60;;;;;;5055252;28;20389;-80
2022/05/07 09:50:20;;;;;;;6.17;2.77;;;19.40;96.20;;;;;;5067342;28;20385;-83
2022/05/07 09:59:13;;;;;;;2.67;2.43;;;19.50;95.20;;;;;;5064603;28;20420;-83
2022/05/07 10:02:29;;;;;;;3.53;2.80;;;19.80;94.10;;;;;;5035556;28;20456;-83
2022/05/07 10:05:43;;;;;;;3.30;3.00;;;20.00;93.70;;;;;;5047435;28;20485;-83
2022/05/07 10:08:52;;;;;;;3.03;2.63;;;20.00;91.80;;;;;;5074876;28;20479;-81
2022/05/07 10:11:38;;;;;;;3.20;2.73;;;19.80;93.10;;;;;;5049164;28;20478;-81
2022/05/07 10:14:31;;;;;;;3.53;2.13;;;20.40;90.60;;;;;;5073565;28;20453;-81
2022/05/07 10:17:21;;;;;;;3.27;2.97;;;20.80;91.80;;;;;;5043529;28;20502;-82
2022/05/07 10:20:09;;;;;;;6.70;2.73;;;20.10;86.50;;;;;;5041423;28;20422;-81
2022/05/07 10:22:57;;;;;;;2.50;2.27;;;20.80;93.00;;;;;;5064279;28;20462;-81
2022/05/07 10:25:44;;;;;;;2.67;2.33;;;21.50;81.80;;;;;;5064438;28;20405;-81
2022/05/07 10:28:40;;;;;;;2.97;2.70;;;21.20;84.60;;;;;;5036164;28;20421;-81
2022/05/07 10:31:25;;;;;;;3.43;2.90;;;21.10;88.70;;;;;;5050195;28;20489;-81
2022/05/07 10:34:10;;;;;;;2.30;2.20;;;21.80;90.10;;;;;;5022431;28;20492;-81
2022/05/07 10:37:05;;;;;;;3.20;2.90;;;22.00;83.50;;;;;;5064889;28;20480;-80
2022/05/07 10:39:51;;;;;;;4.70;2.47;;;21.00;77.40;;;;;;5036065;28;20386;-81
2022/05/07 10:42:39;;;;;;;3.10;2.83;;;21.10;80.70;;;;;;5063939;28;20444;-81
2022/05/07 10:45:24;;;;;;;3.40;3.20;;;20.80;76.00;;;;;;5049078;28;20781;-81
2022/05/07 10:48:18;;;;;;;2.90;2.70;;;21.40;77.20;;;;;;5035630;28;20444;-81
2022/05/07 10:51:02;;;;;;;3.00;2.53;;;21.20;79.00;;;;;;5035874;28;20500;-80
2022/05/07 10:53:49;;;;;;;2.40;2.30;;;20.50;75.40;;;;;;5052093;28;20470;-81
2022/05/07 10:56:34;;;;;;;4.23;3.33;;;21.50;73.70;;;;;;5064584;28;20454;-80
2022/05/07 10:59:20;;;;;;;2.63;2.50;;;21.60;75.50;;;;;;5033182;28;20414;-80
2022/05/07 11:02:08;;;;;;;3.03;2.80;;;21.70;78.20;;;;;;5063782;28;20398;-81
2022/05/07 11:04:53;;;;;;;4.10;3.70;;;21.80;73.00;;;;;;5034590;28;20832;-81
2022/05/07 11:07:39;;;;;;;4.43;4.03;;;21.70;77.80;;;;;;5048752;28;20458;-81
2022/05/07 11:10:25;;;;;;;3.60;3.30;;;21.00;79.50;;;;;;5020026;28;20970;-81
2022/05/07 11:13:15;;;;;;;3.50;3.20;;;20.80;83.60;;;;;;5048224;28;20390;-80
2022/05/07 11:16:06;;;;;;;3.60;3.20;;;20.70;80.50;;;;;;5035352;28;20393;-82
2022/05/07 11:18:53;;;;;;;3.40;3.10;;;21.00;84.00;;;;;;5048373;28;20782;-81
2022/05/07 11:21:37;;;;;;;3.40;2.83;;;21.50;80.80;;;;;;5019091;28;20394;-82
2022/05/07 11:24:25;;;;;;;5.10;3.00;;;22.40;80.30;;;;;;5048503;28;20440;-80
2022/05/07 11:27:11;;;;;;;4.27;3.90;;;23.20;79.40;;;;;;5034463;28;20460;-79
2022/05/07 11:29:56;;;;;;;6.50;3.00;;;23.10;73.80;;;;;;5035548;28;20716;-81
2022/05/07 11:32:42;;;;;;;6.70;2.80;;;22.60;75.70;;;;;;5064460;28;20722;-80
2022/05/07 11:35:26;;;;;;;3.87;2.73;;;23.30;73.30;;;;;;5027898;28;20582;-79
2022/05/07 11:38:12;;;;;;;2.40;2.30;;;24.20;73.10;;;;;;5051808;28;20445;-81
2022/05/07 11:41:14;;;;;;;3.00;2.80;;;25.10;66.90;;;;;;5051621;28;20409;-78
2022/05/07 11:46:57;;;;;;;3.70;3.07;;;23.70;66.20;;;;;;5026971;28;20417;-81
2022/05/07 11:49:41;;;;;;;2.90;2.70;;;23.30;68.70;;;;;;5038891;28;20482;-79
2022/05/07 11:52:45;;;;;;;4.43;3.40;;;22.20;69.60;;;;;;5034335;28;20451;-79
2022/05/07 11:55:30;;;;;;;2.77;2.57;;;22.30;71.80;;;;;;5028028;28;20492;-82
2022/05/07 11:58:23;;;;;;;5.63;4.10;;;22.10;71.60;;;;;;5013842;28;20538;-82
2022/05/07 12:01:22;;;;;;;2.70;2.50;;;21.40;68.50;;;;;;5015772;28;20407;-81
2022/05/07 12:04:09;;;;;;;8.90;3.47;;;21.10;68.10;;;;;;5027765;28;20398;-81
2022/05/07 12:06:55;;;;;;;3.83;3.07;;;20.80;69.50;;;;;;5029134;28;20995;-81
2022/05/07 12:09:40;;;;;;;3.10;2.90;;;20.60;72.30;;;;;;5014522;28;20419;-81
2022/05/07 12:12:25;;;;;;;3.90;2.70;;;20.50;75.10;;;;;;4994262;28;20463;-81
2022/05/07 12:15:10;;;;;;;2.93;2.73;;;21.20;73.90;;;;;;5008028;28;20416;-80
2022/05/07 12:17:55;;;;;;;3.27;3.07;;;23.00;68.30;;;;;;4993728;28;20454;-84
2022/05/07 12:20:39;;;;;;;2.83;2.63;;;24.10;65.10;;;;;;5022672;28;20508;-84
2022/05/07 12:32:24;;;;;;;3.23;2.93;;;24.10;62.30;;;;;;5031207;28;20450;-83
2022/05/07 12:35:08;;;;;;;2.70;2.50;;;24.20;59.70;;;;;;5022229;28;20432;-85
2022/05/07 12:37:53;;;;;;;3.13;2.93;;;22.20;64.70;;;;;;5025539;28;20467;-81
2022/05/07 12:40:38;;;;;;;6.73;3.23;;;21.60;67.90;;;;;;5030666;28;21093;-83
2022/05/07 12:43:22;;;;;;;7.30;6.13;;;21.90;69.50;;;;;;5032001;28;20508;-81
2022/05/07 12:46:10;;;;;;;3.67;3.03;;;21.70;71.70;;;;;;5054412;28;20386;-80
2022/05/07 12:48:56;;;;;;;3.10;2.60;;;22.10;67.50;;;;;;5055458;28;20414;-84
2022/05/07 12:51:41;;;;;;;3.50;2.70;;;21.60;63.70;;;;;;5042722;28;20442;-83
2022/05/07 12:54:25;;;;;;;4.00;2.87;;;21.70;66.80;;;;;;5029029;28;20410;-82
2022/05/07 12:57:10;;;;;;;2.17;2.00;;;22.90;69.10;;;;;;5031375;28;20499;-83
2022/05/07 12:59:55;;;;;;;2.80;2.60;;;24.10;65.30;;;;;;5046915;28;20441;-84
2022/05/07 13:02:40;;;;;;;2.60;2.37;;;24.50;64.20;;;;;;5041864;28;20397;-82
2022/05/07 13:05:25;;;;;;;4.10;2.60;;;26.20;57.50;;;;;;5028032;28;20941;-83
2022/05/07 13:08:10;;;;;;;2.90;2.70;;;25.00;57.90;;;;;;5062490;28;20396;-81
2022/05/07 13:10:54;;;;;;;3.40;3.10;;;23.70;58.00;;;;;;5045281;28;20794;-85
2022/05/07 13:13:39;;;;;;;2.00;1.90;;;23.70;58.70;;;;;;5045592;28;20735;-82
2022/05/07 13:16:25;;;;;;;2.87;2.67;;;24.10;59.70;;;;;;5044717;28;20465;-85
2022/05/07 13:19:10;;;;;;;2.83;2.63;;;24.70;60.90;;;;;;5061392;28;20405;-84
2022/05/07 13:22:01;;;;;;;3.00;2.80;;;25.00;61.60;;;;;;5061571;28;20959;-81
2022/05/07 13:24:46;;;;;;;2.77;2.57;;;25.80;59.00;;;;;;5024476;28;20423;-82
2022/05/07 13:27:34;;;;;;;2.50;2.30;;;26.60;57.30;;;;;;5009307;28;20442;-84
2022/05/07 13:30:20;;;;;;;2.10;2.00;;;26.90;58.00;;;;;;5022855;28;20395;-83
2022/05/07 13:33:05;;;;;;;2.93;2.73;;;27.20;56.70;;;;;;4995186;28;20402;-83
2022/05/07 13:35:53;;;;;;;2.67;2.47;;;27.40;57.50;;;;;;5024178;28;20387;-84
2022/05/07 13:38:37;;;;;;;2.60;2.40;;;27.00;54.60;;;;;;5008921;28;20497;-83
2022/05/07 13:41:22;;;;;;;2.53;2.30;;;26.10;55.40;;;;;;5022014;28;20826;-81
2022/05/07 13:44:10;;;;;;;2.90;2.40;;;25.30;56.80;;;;;;5005364;28;20486;-83
2022/05/07 13:46:55;;;;;;;2.40;2.20;;;23.40;56.70;;;;;;5021156;28;20463;-83
2022/05/07 13:49:40;;;;;;;2.13;2.03;;;24.10;56.50;;;;;;5009543;28;20410;-81
2022/05/07 13:52:26;;;;;;;4.90;3.60;;;24.80;56.40;;;;;;5028328;28;20473;-81
2022/05/07 13:55:13;;;;;;;3.37;3.17;;;25.60;57.20;;;;;;5017146;28;20943;-82
2022/05/07 13:57:57;;;;;;;4.80;3.37;;;24.70;57.60;;;;;;5069840;28;20529;-82
2022/05/07 14:00:42;;;;;;;2.53;2.40;;;24.70;59.30;;;;;;5070376;28;20741;-80
2022/05/07 14:03:26;;;;;;;2.70;2.50;;;25.20;57.70;;;;;;5024776;28;20444;-83
2022/05/07 14:06:16;;;;;;;7.60;3.67;;;25.00;57.70;;;;;;5067997;28;20518;-82
2022/05/07 14:09:00;;;;;;;3.20;2.87;;;24.70;58.50;;;;;;5067603;28;20401;-82
2022/05/07 14:11:45;;;;;;;3.83;2.83;;;24.70;58.50;;;;;;5067885;28;20462;-82
2022/05/07 14:14:29;;;;;;;2.70;2.50;;;24.40;58.50;;;;;;5038656;28;20499;-82
2022/05/07 14:17:17;;;;;;;2.40;2.30;;;25.70;58.50;;;;;;5053195;28;20445;-82
2022/05/07 14:20:01;;;;;;;4.07;2.20;;;24.90;57.30;;;;;;5052621;28;20429;-83
2022/05/07 14:22:46;;;;;;;2.93;2.73;;;24.40;57.50;;;;;;5067118;28;20424;-81
2022/05/07 14:25:31;;;;;;;2.60;2.40;;;25.10;56.90;;;;;;5068517;28;20392;-78
2022/05/07 14:28:16;;;;;;;2.20;2.10;;;24.50;57.70;;;;;;5054946;28;20413;-81
2022/05/07 14:31:00;;;;;;;3.20;2.23;;;25.30;55.80;;;;;;5069153;28;20458;-82
2022/05/07 14:33:47;;;;;;;2.70;2.50;;;25.20;56.70;;;;;;5068495;28;20390;-82
2022/05/07 14:36:32;;;;;;;2.97;2.77;;;26.40;54.80;;;;;;5054743;28;20742;-81
2022/05/07 14:39:17;;;;;;;3.50;2.33;;;27.20;53.70;;;;;;5070044;28;20412;-83
2022/05/07 14:42:03;;;;;;;2.77;2.20;;;27.50;53.20;;;;;;5052647;28;20409;-83
2022/05/07 14:44:48;;;;;;;2.13;1.97;;;27.40;52.90;;;;;;5071080;28;20378;-83
2022/05/07 14:47:35;;;;;;;2.30;2.10;;;26.70;52.40;;;;;;5064413;28;20417;-79
2022/05/07 14:50:22;;;;;;;5.70;3.00;;;26.30;52.80;;;;;;5003868;28;20520;-81
2022/05/07 14:53:06;;;;;;;6.00;2.80;;;25.80;52.90;;;;;;4990999;28;20427;-81
2022/05/07 14:55:51;;;;;;;3.00;2.80;;;25.20;55.20;;;;;;5023515;28;20584;-81
2022/05/07 14:58:36;;;;;;;3.17;2.87;;;26.20;54.00;;;;;;5012199;28;20527;-83
2022/05/07 15:01:21;;;;;;;2.10;2.00;;;26.20;54.40;;;;;;5031750;28;20423;-84